Agreda, Spain
Current Conditions -  °F | °C
As of 1:00 AM on Tuesday 25 Nov 2014 (Local Time) from LELO Reporting Station
Few Clouds Few Clouds  
Wind Chill: 55°   Ceiling: Unl
Heat Index: 55°   Visibility: 6mi
Dew Point: 54°   Wind: 0mph
Humidity: 94%   Direction: NA
Pressure: 30.06"   Gusts: NA
Location:  41.86°N, 1.92°W
Report Text: LELO 250000Z 00000KT 9999 FEW050 13/12 Q1018
Loading
Personal Weather Stations






























Interactive Weather Map New forecast layout! Learn more

10-Day Weather Forecast

Advertisements
Track Severe Weather on mobile